Time;durP1;ratioP1;P1;durP2;ratioP2;P2;SDS_P1;SDS_P2;PMS_P1;PMS_P2;Temp;Humidity;BMP_temperature;BMP_pressure;BME280_temperature;BME280_humidity;BME280_pressure;Samples;Min_cycle;Max_cycle;Signal;HPM_P1;HPM_P2
2023/10/08 00:02:03;;;;;;;7.43;4.33;;;;;;;14.61;100.00;100848.28;5070591;28;20220;-65
2023/10/08 00:04:28;;;;;;;9.40;4.30;;;;;;;14.67;100.00;100850.56;5092328;28;20298;-65
2023/10/08 00:06:54;;;;;;;8.27;4.93;;;;;;;14.61;100.00;100841.38;5096883;28;20179;-65
2023/10/08 00:09:20;;;;;;;6.07;4.37;;;;;;;14.62;100.00;100847.38;5093329;28;20192;-65
2023/10/08 00:11:51;;;;;;;6.97;4.97;;;;;;;14.71;100.00;100857.22;5080951;28;20282;-66
2023/10/08 00:14:21;;;;;;;6.53;4.63;;;;;;;14.66;100.00;100854.91;5094304;28;20199;-66
2023/10/08 00:16:49;;;;;;;6.83;4.50;;;;;;;14.35;100.00;100846.34;5092234;28;20172;-66
2023/10/08 00:19:17;;;;;;;7.80;4.80;;;;;;;14.45;100.00;100859.56;5074550;28;20187;-66
2023/10/08 00:21:44;;;;;;;6.03;4.77;;;;;;;14.52;100.00;100853.13;5065171;28;20758;-66
2023/10/08 00:24:10;;;;;;;7.23;4.90;;;;;;;14.48;100.00;100851.59;5074967;28;20223;-66
2023/10/08 00:26:39;;;;;;;7.63;4.20;;;;;;;14.43;100.00;100845.88;5092295;28;20180;-66
2023/10/08 00:29:15;;;;;;;6.97;4.47;;;;;;;14.49;100.00;100852.47;5074452;28;20213;-67
2023/10/08 00:31:40;;;;;;;9.10;5.00;;;;;;;14.41;100.00;100839.94;5080701;28;20404;-66
2023/10/08 00:34:08;;;;;;;9.80;5.13;;;;;;;14.48;100.00;100832.66;5091614;28;20540;-65
2023/10/08 00:36:34;;;;;;;7.90;4.50;;;;;;;14.55;100.00;100833.13;5073972;28;20206;-65
2023/10/08 00:39:00;;;;;;;6.60;4.90;;;;;;;14.62;100.00;100829.25;5086290;28;20639;-66
2023/10/08 00:41:31;;;;;;;8.50;5.13;;;;;;;14.75;100.00;100827.63;5075100;28;20690;-65
2023/10/08 00:43:59;;;;;;;6.93;4.67;;;;;;;14.92;100.00;100825.75;5072821;28;20188;-65
2023/10/08 00:46:31;;;;;;;9.33;4.83;;;;;;;15.01;100.00;100828.63;5092150;28;20226;-66
2023/10/08 00:49:18;;;;;;;10.20;4.80;;;;;;;15.21;100.00;100828.28;5080801;28;20207;-65
2023/10/08 00:51:45;;;;;;;6.97;4.60;;;;;;;15.32;100.00;100831.06;5080154;28;20261;-65
2023/10/08 00:54:17;;;;;;;9.67;5.07;;;;;;;15.25;100.00;100822.84;5091764;28;20176;-65
2023/10/08 00:59:15;;;;;;;9.30;4.33;;;;;;;15.35;100.00;100809.31;5080757;28;20214;-65
2023/10/08 01:01:51;;;;;;;6.03;4.20;;;;;;;15.40;100.00;100805.47;5059504;28;20259;-66
2023/10/08 01:04:26;;;;;;;7.37;4.60;;;;;;;15.36;100.00;100809.19;5082107;28;20230;-65
2023/10/08 01:06:56;;;;;;;9.00;4.63;;;;;;;15.45;100.00;100798.22;5091515;28;20178;-65
2023/10/08 01:09:30;;;;;;;5.90;4.07;;;;;;;15.32;100.00;100795.59;5089074;28;20195;-65
2023/10/08 01:14:47;;;;;;;5.73;3.93;;;;;;;15.40;100.00;100802.88;5091262;28;20298;-65
2023/10/08 01:17:19;;;;;;;5.97;4.23;;;;;;;15.31;100.00;100808.66;5091339;28;20237;-66
2023/10/08 01:19:46;;;;;;;6.97;4.17;;;;;;;15.33;100.00;100806.78;5084845;28;20181;-65
2023/10/08 01:22:19;;;;;;;8.10;4.53;;;;;;;15.30;100.00;100799.22;5043858;28;20347;-67
2023/10/08 01:24:48;;;;;;;5.73;4.20;;;;;;;15.22;100.00;100798.88;5091663;28;20222;-63
2023/10/08 01:27:20;;;;;;;9.50;4.13;;;;;;;15.21;100.00;100802.38;5075374;28;20183;-65
2023/10/08 01:29:46;;;;;;;7.37;4.87;;;;;;;15.11;100.00;100786.59;5064174;28;20551;-64
2023/10/08 01:32:15;;;;;;;4.97;3.67;;;;;;;15.09;100.00;100788.44;5047411;28;20311;-65
2023/10/08 01:34:45;;;;;;;8.63;4.03;;;;;;;15.12;100.00;100783.06;5091613;28;20548;-65
2023/10/08 01:37:12;;;;;;;5.27;3.97;;;;;;;15.12;100.00;100783.06;5077616;28;20671;-65
2023/10/08 01:39:42;;;;;;;6.57;4.30;;;;;;;15.30;100.00;100781.09;5099225;28;20200;-64
2023/10/08 01:42:15;;;;;;;5.33;4.00;;;;;;;15.38;100.00;100793.53;5079325;28;20702;-65
2023/10/08 01:44:40;;;;;;;5.90;4.40;;;;;;;15.49;100.00;100794.53;5085985;28;20669;-66
2023/10/08 01:47:06;;;;;;;7.10;3.83;;;;;;;15.30;100.00;100802.63;5110851;28;20193;-65
2023/10/08 01:49:33;;;;;;;10.83;4.70;;;;;;;15.14;100.00;100809.72;5093719;28;20274;-65
2023/10/08 01:51:59;;;;;;;6.27;3.97;;;;;;;15.17;100.00;100809.53;5079103;28;20224;-64
2023/10/08 01:54:26;;;;;;;7.97;4.57;;;;;;;15.14;100.00;100813.16;5110771;28;20176;-71
2023/10/08 01:56:51;;;;;;;7.07;3.93;;;;;;;15.13;100.00;100824.44;5071330;28;20264;-71
2023/10/08 01:59:17;;;;;;;8.73;4.50;;;;;;;15.25;100.00;100827.19;5070591;28;20275;-65
2023/10/08 02:01:45;;;;;;;7.67;4.23;;;;;;;15.21;100.00;100829.16;5059428;28;20228;-65
2023/10/08 02:04:12;;;;;;;6.20;4.77;;;;;;;15.23;100.00;100835.06;5083655;28;20208;-65
2023/10/08 02:06:41;;;;;;;5.20;4.00;;;;;;;14.95;100.00;100831.59;5084034;28;20176;-65
2023/10/08 02:09:07;;;;;;;4.90;3.83;;;;;;;14.87;100.00;100823.44;5096452;28;20175;-65
2023/10/08 02:11:50;;;;;;;8.57;4.47;;;;;;;14.68;100.00;100821.97;5088519;28;20227;-65
2023/10/08 02:14:16;;;;;;;5.97;3.87;;;;;;;14.74;100.00;100828.53;5113035;28;20606;-65
2023/10/08 02:16:44;;;;;;;7.47;3.90;;;;;;;14.85;100.00;100814.94;5094113;28;20224;-65
2023/10/08 02:19:10;;;;;;;6.97;4.23;;;;;;;14.73;100.00;100816.50;5083099;28;20174;-65
2023/10/08 02:21:37;;;;;;;6.17;4.13;;;;;;;14.63;100.00;100810.22;5070354;28;20326;-66
2023/10/08 02:24:04;;;;;;;6.50;4.57;;;;;;;14.66;100.00;100804.84;5092965;28;20220;-65
2023/10/08 02:26:29;;;;;;;5.57;4.10;;;;;;;14.73;100.00;100800.16;5102031;28;20200;-65
2023/10/08 02:28:54;;;;;;;7.73;4.40;;;;;;;14.76;100.00;100797.38;5100963;28;20263;-66
2023/10/08 02:31:20;;;;;;;5.20;4.03;;;;;;;14.80;100.00;100794.50;5084667;28;20217;-66
2023/10/08 02:33:45;;;;;;;8.03;4.77;;;;;;;14.83;100.00;100791.75;5099514;28;20179;-66
2023/10/08 02:36:10;;;;;;;5.37;4.30;;;;;;;14.78;100.00;100791.16;5088656;28;20180;-65
2023/10/08 02:38:38;;;;;;;8.00;4.13;;;;;;;14.82;100.00;100797.00;5112247;28;20182;-65
2023/10/08 02:41:07;;;;;;;8.33;4.43;;;;;;;14.86;100.00;100793.31;5070613;28;20585;-67
2023/10/08 02:43:36;;;;;;;6.17;4.43;;;;;;;14.84;100.00;100792.56;5093163;28;20249;-64
2023/10/08 02:46:06;;;;;;;7.60;4.13;;;;;;;14.73;100.00;100785.44;5072979;28;20175;-65
2023/10/08 02:48:32;;;;;;;5.20;4.20;;;;;;;14.60;100.00;100774.97;5071273;28;20188;-64
2023/10/08 02:51:06;;;;;;;8.10;4.60;;;;;;;14.63;100.00;100774.78;5083721;28;20285;-64
2023/10/08 02:53:32;;;;;;;8.60;4.90;;;;;;;14.70;100.00;100767.53;5095465;28;20537;-64
2023/10/08 02:55:57;;;;;;;7.93;4.43;;;;;;;14.73;100.00;100763.91;5092378;28;20195;-65
2023/10/08 02:58:25;;;;;;;7.23;4.73;;;;;;;14.79;100.00;100766.13;5090269;28;20264;-64
2023/10/08 03:00:53;;;;;;;6.20;4.33;;;;;;;14.81;100.00;100772.88;5074494;28;20262;-65
2023/10/08 03:03:18;;;;;;;7.23;4.60;;;;;;;14.79;100.00;100773.88;5090204;28;20314;-65
2023/10/08 03:05:51;;;;;;;7.10;4.40;;;;;;;14.92;100.00;100782.56;5103476;28;20590;-65
2023/10/08 03:08:21;;;;;;;8.87;4.63;;;;;;;14.79;100.00;100787.66;5075831;28;20181;-64
2023/10/08 03:10:55;;;;;;;7.87;4.50;;;;;;;14.84;100.00;100795.16;5087797;28;20231;-64
2023/10/08 03:13:22;;;;;;;9.97;5.40;;;;;;;14.90;100.00;100792.19;5085783;28;20550;-64
2023/10/08 03:15:57;;;;;;;5.77;4.50;;;;;;;14.80;100.00;100797.09;5083974;28;20245;-65
2023/10/08 03:18:24;;;;;;;6.47;4.50;;;;;;;14.69;100.00;100794.34;5093935;28;20617;-65
2023/10/08 03:20:49;;;;;;;6.23;4.50;;;;;;;14.50;100.00;100800.59;5082563;28;20216;-65
2023/10/08 03:23:35;;;;;;;5.70;4.80;;;;;;;14.60;100.00;100800.03;5091139;28;20258;-66
2023/10/08 03:26:11;;;;;;;7.07;4.43;;;;;;;14.44;100.00;100803.53;5088844;28;20625;-65
2023/10/08 03:28:37;;;;;;;5.13;4.33;;;;;;;14.39;100.00;100805.56;5067410;28;20180;-64
2023/10/08 03:31:14;;;;;;;7.10;4.30;;;;;;;14.39;100.00;100810.75;5039739;28;20261;-64
2023/10/08 03:33:40;;;;;;;6.23;4.50;;;;;;;14.40;100.00;100817.59;5053993;28;20321;-65
2023/10/08 03:36:22;;;;;;;6.13;4.13;;;;;;;14.38;100.00;100826.38;5068285;28;20627;-65
2023/10/08 03:38:51;;;;;;;6.33;4.53;;;;;;;14.28;100.00;100828.69;5082030;28;20164;-65
2023/10/08 03:41:18;;;;;;;8.97;4.87;;;;;;;14.26;100.00;100825.34;5061177;28;20652;-65
2023/10/08 03:43:55;;;;;;;6.07;4.80;;;;;;;14.30;100.00;100827.66;5070906;28;20224;-64
2023/10/08 03:46:23;;;;;;;7.60;4.07;;;;;;;14.33;100.00;100830.06;5087154;28;20179;-65
2023/10/08 03:48:50;;;;;;;7.27;4.03;;;;;;;14.33;100.00;100837.81;5092937;28;20180;-65
2023/10/08 03:51:19;;;;;;;7.73;4.27;;;;;;;14.39;100.00;100834.03;5065564;28;20362;-64
2023/10/08 03:54:15;;;;;;;8.07;4.83;;;;;;;14.34;100.00;100839.50;5091165;28;20184;-66
2023/10/08 03:56:45;;;;;;;6.10;4.43;;;;;;;14.20;100.00;100842.88;5076778;28;20184;-66
2023/10/08 03:59:33;;;;;;;7.13;5.13;;;;;;;14.25;100.00;100849.53;5060133;28;20270;-65
2023/10/08 04:02:46;;;;;;;6.97;5.10;;;;;;;14.21;100.00;100859.22;5079198;28;20311;-66
2023/10/08 04:04:49;;;;;;;5.43;4.13;;;;;;;14.16;100.00;100851.72;5087919;28;20234;-64
2023/10/08 04:08:17;;;;;;;7.27;4.50;;;;;;;14.22;100.00;100847.16;5093261;28;20187;-65
2023/10/08 04:12:44;;;;;;;8.40;4.50;;;;;;;14.11;100.00;100843.41;5090352;28;20215;-65
2023/10/08 04:15:12;;;;;;;8.13;4.97;;;;;;;14.09;100.00;100840.09;5074416;28;20227;-65
2023/10/08 04:17:43;;;;;;;6.67;4.57;;;;;;;13.90;100.00;100840.28;5074313;28;20173;-66
2023/10/08 04:22:54;;;;;;;7.47;4.13;;;;;;;14.07;100.00;100830.75;5076229;28;20322;-66
2023/10/08 04:25:20;;;;;;;8.80;4.93;;;;;;;14.06;100.00;100826.50;5071596;28;20259;-68
2023/10/08 04:27:49;;;;;;;7.20;4.50;;;;;;;13.96;100.00;100824.41;5080395;28;20184;-66
2023/10/08 04:30:15;;;;;;;7.97;4.97;;;;;;;14.02;100.00;100818.91;5076486;28;20183;-66
2023/10/08 04:32:42;;;;;;;6.60;4.67;;;;;;;14.15;100.00;100813.00;5090484;28;20253;-66
2023/10/08 04:35:14;;;;;;;7.17;4.63;;;;;;;14.03;100.00;100828.31;5091495;28;20643;-66
2023/10/08 04:37:40;;;;;;;7.70;4.77;;;;;;;14.21;100.00;100825.59;5075592;28;20211;-66
2023/10/08 04:40:15;;;;;;;8.90;4.90;;;;;;;14.32;100.00;100824.97;5063013;28;20635;-66
2023/10/08 04:42:40;;;;;;;8.43;5.10;;;;;;;14.30;100.00;100827.66;5090397;28;20524;-66
2023/10/08 04:45:13;;;;;;;9.40;4.87;;;;;;;14.46;100.00;100832.78;5091887;28;20244;-65
2023/10/08 04:47:42;;;;;;;8.47;4.63;;;;;;;14.40;100.00;100832.28;5073726;28;20179;-65
2023/10/08 04:50:17;;;;;;;8.33;4.53;;;;;;;14.42;100.00;100836.44;5062997;28;20237;-65
2023/10/08 04:52:47;;;;;;;8.23;4.67;;;;;;;14.44;100.00;100849.31;5089892;28;20180;-65
2023/10/08 04:55:19;;;;;;;4.90;4.33;;;;;;;14.52;100.00;100860.03;5091593;28;20635;-64
2023/10/08 04:57:45;;;;;;;7.93;5.00;;;;;;;14.58;100.00;100859.66;5091813;28;20180;-64
2023/10/08 05:00:15;;;;;;;7.07;5.07;;;;;;;14.54;100.00;100858.19;5063091;28;20180;-66
2023/10/08 05:02:50;;;;;;;7.47;4.93;;;;;;;14.50;100.00;100862.72;5089979;28;20183;-66
2023/10/08 05:15:47;;;;;;;8.53;5.00;;;;;;;14.63;100.00;100855.03;5091874;28;20207;-66
2023/10/08 05:26:08;;;;;;;6.17;4.17;;;;;;;14.55;100.00;100854.69;5091561;28;20266;-66
2023/10/08 05:31:36;;;;;;;6.03;4.63;;;;;;;14.53;100.00;100848.75;5070563;28;20223;-66
2023/10/08 05:34:22;;;;;;;7.30;4.50;;;;;;;14.53;100.00;100841.00;5096450;28;20171;-67
2023/10/08 05:37:14;;;;;;;7.13;4.30;;;;;;;14.30;100.00;100837.16;5095030;28;20180;-66
2023/10/08 05:39:42;;;;;;;8.03;4.67;;;;;;;14.28;100.00;100824.31;5092291;28;20344;-66
2023/10/08 05:42:31;;;;;;;8.27;5.00;;;;;;;14.26;100.00;100826.16;5084527;28;20351;-66
2023/10/08 05:46:19;;;;;;;7.30;4.30;;;;;;;14.26;100.00;100830.50;5100475;28;20658;-66
2023/10/08 05:50:54;;;;;;;6.53;4.97;;;;;;;14.64;100.00;100838.59;5087831;28;20243;-65
2023/10/08 05:53:29;;;;;;;8.17;5.13;;;;;;;14.72;100.00;100835.56;5100821;28;20206;-66
2023/10/08 05:56:16;;;;;;;6.30;5.40;;;;;;;14.77;100.00;100828.38;5095552;28;20180;-66
2023/10/08 05:58:46;;;;;;;7.90;5.17;;;;;;;14.79;100.00;100833.47;5094684;28;20245;-67
2023/10/08 06:01:26;;;;;;;7.23;4.93;;;;;;;14.76;100.00;100828.44;5066225;28;20220;-66
2023/10/08 06:04:03;;;;;;;6.00;4.17;;;;;;;14.79;100.00;100828.28;5094902;28;20223;-66
2023/10/08 06:06:37;;;;;;;11.63;5.27;;;;;;;14.83;100.00;100833.19;5103410;28;20267;-65
2023/10/08 06:09:21;;;;;;;5.40;4.70;;;;;;;14.82;100.00;100846.19;5100632;28;20257;-65
2023/10/08 06:12:06;;;;;;;7.10;4.47;;;;;;;14.77;100.00;100856.00;5090627;28;20214;-65
2023/10/08 06:17:44;;;;;;;5.57;4.57;;;;;;;14.95;100.00;100870.44;5075112;28;20191;-66
2023/10/08 06:20:11;;;;;;;6.77;4.47;;;;;;;14.88;100.00;100889.88;5075589;28;20180;-66
2023/10/08 06:22:36;;;;;;;7.00;4.53;;;;;;;14.81;100.00;100910.13;5079038;28;20176;-66
2023/10/08 06:25:16;;;;;;;6.97;4.57;;;;;;;14.94;100.00;100914.59;5075908;28;20286;-67
2023/10/08 06:27:44;;;;;;;7.50;4.80;;;;;;;15.13;100.00;100922.06;5083959;28;20612;-66
2023/10/08 06:30:16;;;;;;;12.00;5.30;;;;;;;15.20;100.00;100914.78;5083403;28;20180;-66
2023/10/08 06:32:44;;;;;;;5.17;4.13;;;;;;;15.28;100.00;100917.69;5084738;28;20192;-66
2023/10/08 06:35:17;;;;;;;7.63;4.63;;;;;;;15.42;100.00;100906.50;5091990;28;20188;-64
2023/10/08 06:37:43;;;;;;;7.07;4.10;;;;;;;15.59;100.00;100903.69;5093678;28;20268;-65
2023/10/08 06:40:36;;;;;;;6.97;4.73;;;;;;;15.79;100.00;100915.38;5073544;28;20233;-65
2023/10/08 06:42:56;;;;;;;7.40;4.90;;;;;;;15.56;100.00;100926.38;5089997;28;20191;-64
2023/10/08 06:45:22;;;;;;;11.00;4.43;;;;;;;15.61;100.00;100932.94;5093896;28;20605;-66
2023/10/08 06:47:48;;;;;;;7.13;4.27;;;;;;;15.64;100.00;100935.34;5094106;28;20168;-65
2023/10/08 06:50:15;;;;;;;6.20;4.37;;;;;;;15.67;100.00;100933.50;5063721;28;20261;-65
2023/10/08 06:52:43;;;;;;;7.00;4.50;;;;;;;15.85;100.00;100931.53;5094289;28;20271;-66
2023/10/08 06:55:11;;;;;;;6.17;4.80;;;;;;;15.94;100.00;100930.94;5093048;28;20179;-65
2023/10/08 06:57:38;;;;;;;8.77;4.70;;;;;;;16.07;100.00;100933.56;5077688;28;20186;-65
2023/10/08 07:00:12;;;;;;;7.67;4.27;;;;;;;16.22;100.00;100922.19;5071476;28;20176;-66
2023/10/08 07:02:39;;;;;;;9.03;4.57;;;;;;;16.36;100.00;100925.66;5086925;28;20201;-65
2023/10/08 07:05:09;;;;;;;6.10;4.30;;;;;;;16.57;100.00;100920.78;5071179;28;20299;-66
2023/10/08 07:07:39;;;;;;;5.53;4.37;;;;;;;16.82;100.00;100924.34;5074871;28;20193;-65
2023/10/08 07:10:10;;;;;;;6.87;4.67;;;;;;;16.84;100.00;100927.69;5065353;28;20639;-65
2023/10/08 07:12:35;;;;;;;8.30;4.40;;;;;;;16.83;100.00;100918.22;5071303;28;20647;-67
2023/10/08 07:15:02;;;;;;;12.30;4.73;;;;;;;16.77;100.00;100930.69;5089490;28;20240;-66
2023/10/08 07:17:36;;;;;;;8.43;4.80;;;;;;;16.85;100.00;100945.75;5106909;28;20178;-66
2023/10/08 07:20:12;;;;;;;8.83;4.43;;;;;;;16.88;100.00;100953.34;5072993;28;20184;-67
2023/10/08 07:22:39;;;;;;;7.23;4.13;;;;;;;17.00;100.00;100958.69;5077656;28;20206;-66
2023/10/08 07:25:08;;;;;;;7.43;4.33;;;;;;;17.16;100.00;100953.28;5105208;28;20203;-65
2023/10/08 07:27:37;;;;;;;7.07;4.30;;;;;;;17.21;100.00;100959.81;5094675;28;20183;-65
2023/10/08 07:30:10;;;;;;;6.87;4.23;;;;;;;17.36;100.00;100957.91;5113193;28;20186;-68
2023/10/08 07:32:38;;;;;;;11.13;5.03;;;;;;;17.50;100.00;100951.75;5052693;28;20216;-66
2023/10/08 07:37:46;;;;;;;6.67;4.13;;;;;;;17.66;100.00;100961.91;5100785;28;20184;-65
2023/10/08 07:40:13;;;;;;;8.30;4.50;;;;;;;17.66;100.00;100961.91;5063758;28;20188;-66
2023/10/08 07:42:38;;;;;;;6.10;4.70;;;;;;;17.78;100.00;100970.59;5086469;28;20268;-65
2023/10/08 07:45:04;;;;;;;7.20;4.50;;;;;;;17.92;100.00;100959.19;5095171;28;20319;-65
2023/10/08 07:47:30;;;;;;;7.80;4.33;;;;;;;17.98;100.00;100966.59;5095160;28;20176;-65
2023/10/08 07:49:55;;;;;;;6.33;4.20;;;;;;;18.02;100.00;100965.47;5094148;28;20195;-67
2023/10/08 07:52:21;;;;;;;7.27;4.70;;;;;;;18.17;100.00;100962.66;5067101;28;20236;-65
2023/10/08 07:54:47;;;;;;;6.87;4.13;;;;;;;18.04;100.00;100970.53;5099140;28;20215;-66
2023/10/08 07:57:17;;;;;;;6.63;4.07;;;;;;;18.13;100.00;100979.47;5094666;28;20172;-65
2023/10/08 07:59:46;;;;;;;6.07;4.97;;;;;;;17.97;100.00;100972.75;5098953;28;20630;-65
2023/10/08 08:02:13;;;;;;;6.60;4.73;;;;;;;18.20;100.00;100976.28;5080347;28;20676;-65
2023/10/08 08:04:40;;;;;;;8.83;4.80;;;;;;;18.27;100.00;100978.44;5073611;28;20592;-65
2023/10/08 08:07:06;;;;;;;6.17;4.17;;;;;;;18.30;100.00;100981.66;5075776;28;20183;-65
2023/10/08 08:09:37;;;;;;;7.23;4.90;;;;;;;18.38;100.00;100973.28;5094010;28;20172;-66
2023/10/08 08:12:08;;;;;;;4.37;3.83;;;;;;;18.48;100.00;100968.22;5066206;28;20356;-66
2023/10/08 08:14:36;;;;;;;6.43;4.07;;;;;;;18.50;100.00;100961.13;5080619;28;20647;-64
2023/10/08 08:17:13;;;;;;;5.80;4.03;;;;;;;18.69;100.00;100969.25;5100273;28;20192;-65
2023/10/08 08:19:43;;;;;;;7.33;4.57;;;;;;;18.73;100.00;100958.56;5081207;28;20166;-65
2023/10/08 08:22:10;;;;;;;6.23;4.23;;;;;;;18.95;100.00;100960.41;5063453;28;20228;-66
2023/10/08 08:24:36;;;;;;;6.97;4.67;;;;;;;19.09;100.00;100957.59;5070741;28;20708;-65
2023/10/08 08:27:11;;;;;;;8.13;4.50;;;;;;;19.33;100.00;100956.63;5073182;28;20173;-66
2023/10/08 08:29:45;;;;;;;8.90;4.80;;;;;;;19.24;100.00;100975.59;5101333;28;20216;-67
2023/10/08 08:32:15;;;;;;;6.20;3.93;;;;;;;19.26;100.00;100976.31;5066593;28;20216;-64
2023/10/08 08:34:44;;;;;;;6.60;3.93;;;;;;;19.21;100.00;100981.88;5073832;28;20195;-66
2023/10/08 08:37:11;;;;;;;8.33;4.27;;;;;;;19.20;100.00;100980.19;5070602;28;20169;-65
2023/10/08 08:39:38;;;;;;;6.63;4.80;;;;;;;19.24;100.00;100988.63;5076581;28;20184;-66
2023/10/08 08:42:10;;;;;;;7.87;4.73;;;;;;;18.92;100.00;100984.13;5065970;28;20223;-65
2023/10/08 08:44:45;;;;;;;6.67;4.50;;;;;;;18.97;100.00;100982.81;5081766;28;20675;-67
2023/10/08 08:47:17;;;;;;;11.70;4.20;;;;;;;19.05;100.00;100981.41;5092192;28;20175;-66
2023/10/08 08:49:45;;;;;;;6.60;4.13;;;;;;;19.08;100.00;100989.81;5073990;28;20226;-66
2023/10/08 08:52:11;;;;;;;5.73;4.20;;;;;;;19.11;100.00;100989.56;5062248;28;20341;-65
2023/10/08 08:54:36;;;;;;;5.53;4.20;;;;;;;19.18;100.00;100988.16;5104799;28;20668;-65
2023/10/08 08:57:04;;;;;;;7.83;4.03;;;;;;;19.26;100.00;100991.97;5111318;28;20179;-66
2023/10/08 08:59:30;;;;;;;8.03;4.43;;;;;;;19.39;100.00;101003.09;5091236;28;20180;-66
2023/10/08 09:01:59;;;;;;;6.73;4.40;;;;;;;19.54;100.00;101000.25;5060234;28;20215;-65
2023/10/08 09:04:32;;;;;;;7.33;4.30;;;;;;;19.56;100.00;101000.94;5108516;28;20207;-70
2023/10/08 09:06:59;;;;;;;5.23;4.10;;;;;;;19.79;100.00;100988.69;5102163;28;20195;-65
2023/10/08 09:09:32;;;;;;;7.57;4.70;;;;;;;20.16;100.00;101001.44;5086683;28;20205;-65
2023/10/08 09:11:57;;;;;;;7.83;4.33;;;;;;;20.32;100.00;100993.19;5059978;28;20216;-65
2023/10/08 09:14:29;;;;;;;7.03;4.37;;;;;;;20.35;100.00;101003.38;5090153;28;20192;-65
2023/10/08 09:16:55;;;;;;;7.60;4.20;;;;;;;20.19;100.00;100995.16;5065108;28;20252;-65
2023/10/08 09:19:23;;;;;;;4.57;3.77;;;;;;;20.22;100.00;101013.16;5073361;28;20180;-66
2023/10/08 09:22:06;;;;;;;7.90;4.70;;;;;;;20.39;100.00;101022.25;5062079;28;20346;-64
2023/10/08 09:24:39;;;;;;;6.70;4.10;;;;;;;20.64;100.00;101026.31;5089034;28;20686;-65
2023/10/08 09:27:09;;;;;;;8.50;4.33;;;;;;;20.83;100.00;101023.03;5093031;28;20203;-65
2023/10/08 09:29:39;;;;;;;6.23;4.37;;;;;;;20.84;100.00;101029.06;5101872;28;20180;-64
2023/10/08 09:32:05;;;;;;;6.83;4.57;;;;;;;20.82;100.00;101012.69;5062467;28;20634;-65
2023/10/08 09:34:32;;;;;;;5.73;4.00;;;;;;;21.29;100.00;101016.50;5082798;28;20195;-65
2023/10/08 09:37:01;;;;;;;8.17;4.43;;;;;;;21.57;100.00;101019.41;5092537;28;20175;-65
2023/10/08 09:39:29;;;;;;;6.90;3.77;;;;;;;21.68;100.00;101013.25;5079369;28;20209;-64
2023/10/08 09:41:57;;;;;;;6.67;4.80;;;;;;;21.38;100.00;101021.91;5058661;28;20212;-66
2023/10/08 09:44:24;;;;;;;9.23;4.57;;;;;;;21.48;100.00;101012.28;5084067;28;20199;-66
2023/10/08 09:47:12;;;;;;;8.57;4.80;;;;;;;21.31;100.00;101015.53;5092345;28;20651;-65
2023/10/08 09:49:56;;;;;;;9.37;4.50;;;;;;;21.24;100.00;101016.06;5090041;28;20215;-65
2023/10/08 09:52:33;;;;;;;6.10;4.57;;;;;;;21.16;100.00;101021.16;5060810;28;20354;-65
2023/10/08 09:55:10;;;;;;;7.40;4.33;;;;;;;21.17;100.00;101019.34;5108756;28;20274;-66
2023/10/08 09:57:36;;;;;;;6.90;4.80;;;;;;;21.22;100.00;101023.25;5104625;28;20175;-65
2023/10/08 10:00:01;;;;;;;5.60;4.40;;;;;;;21.41;100.00;101017.25;5095522;28;20233;-67
2023/10/08 10:02:27;;;;;;;9.97;5.10;;;;;;;21.58;100.00;101007.97;5062003;28;20212;-66
2023/10/08 10:04:54;;;;;;;9.63;4.17;;;;;;;21.67;100.00;101016.81;5098313;28;20222;-66
2023/10/08 10:07:20;;;;;;;9.30;4.50;;;;;;;21.67;100.00;101010.72;5084348;28;20651;-66
2023/10/08 10:09:49;;;;;;;11.20;4.43;;;;;;;21.75;100.00;101008.28;5091045;28;20218;-65
2023/10/08 10:12:25;;;;;;;8.23;4.30;;;;;;;21.65;99.84;101018.72;5073411;28;20272;-64
2023/10/08 10:14:56;;;;;;;9.57;4.30;;;;;;;21.90;97.98;101024.44;5086097;28;20313;-66
2023/10/08 10:17:25;;;;;;;6.23;4.20;;;;;;;21.66;100.00;101023.00;5092816;28;20178;-66
2023/10/08 10:19:54;;;;;;;7.90;4.67;;;;;;;21.42;99.47;101029.38;5080797;28;20192;-65
2023/10/08 10:22:33;;;;;;;9.00;4.37;;;;;;;21.28;100.00;101021.88;5057656;28;20282;-65
2023/10/08 10:25:03;;;;;;;7.90;4.30;;;;;;;21.64;100.00;101026.72;5083696;28;20199;-65
2023/10/08 10:27:29;;;;;;;8.47;5.07;;;;;;;21.90;100.00;101020.00;5109151;28;20184;-65
2023/10/08 10:30:08;;;;;;;7.57;4.60;;;;;;;21.86;97.91;101023.06;5106088;28;20294;-65
2023/10/08 10:32:37;;;;;;;8.30;4.83;;;;;;;21.68;100.00;101020.25;5078963;28;20215;-64
2023/10/08 10:35:06;;;;;;;8.60;4.90;;;;;;;21.96;98.13;101016.03;5094281;28;20195;-65
2023/10/08 10:37:42;;;;;;;10.50;4.80;;;;;;;21.99;98.64;101014.94;5076133;28;20649;-66
2023/10/08 10:40:14;;;;;;;9.97;4.60;;;;;;;22.40;99.31;101015.66;5066576;28;20207;-66
2023/10/08 10:42:47;;;;;;;6.40;4.20;;;;;;;22.50;96.31;101024.38;5070196;28;20172;-65
2023/10/08 10:48:11;;;;;;;9.33;5.10;;;;;;;22.37;94.29;101044.75;5080886;28;20548;-65
2023/10/08 10:50:48;;;;;;;12.80;4.77;;;;;;;22.18;96.43;101041.16;5083240;28;20251;-65
2023/10/08 10:53:14;;;;;;;6.67;4.37;;;;;;;21.77;95.52;101040.41;5082751;28;20175;-64
2023/10/08 10:55:47;;;;;;;7.77;4.83;;;;;;;21.84;97.68;101044.13;5114174;28;20254;-65
2023/10/08 10:58:15;;;;;;;9.67;5.37;;;;;;;21.90;98.37;101042.78;5095472;28;20262;-65
2023/10/08 11:03:16;;;;;;;13.93;5.53;;;;;;;21.30;100.00;101048.75;5092257;28;20511;-66
2023/10/08 11:05:47;;;;;;;10.37;5.20;;;;;;;21.30;100.00;101048.75;5072544;28;20307;-66
2023/10/08 11:08:14;;;;;;;9.60;4.93;;;;;;;21.30;100.00;101048.75;5106267;28;20191;-66
2023/10/08 11:10:48;;;;;;;10.07;4.83;;;;;;;21.53;100.00;101041.53;5077261;28;20226;-65
2023/10/08 11:13:16;;;;;;;9.33;5.03;;;;;;;21.69;100.00;101046.28;5092241;28;20226;-65
2023/10/08 11:15:49;;;;;;;11.80;7.30;;;;;;;21.66;100.00;101057.03;5079424;28;20278;-66
2023/10/08 11:18:17;;;;;;;6.73;4.70;;;;;;;21.69;100.00;101059.38;5064085;28;20190;-66
2023/10/08 11:20:44;;;;;;;14.63;9.50;;;;;;;21.83;99.81;101062.59;5063946;28;20220;-66
2023/10/08 11:23:33;;;;;;;14.13;4.77;;;;;;;21.82;99.08;101063.56;5090563;28;20221;-65
2023/10/08 11:26:02;;;;;;;8.57;5.50;;;;;;;22.10;98.70;101059.34;5075963;28;20205;-66
2023/10/08 11:28:42;;;;;;;7.87;4.93;;;;;;;22.69;96.71;101048.91;5093033;28;20184;-66
2023/10/08 11:31:10;;;;;;;9.97;5.10;;;;;;;22.76;93.72;101049.16;5030103;28;20218;-66
2023/10/08 11:33:40;;;;;;;6.50;4.63;;;;;;;22.94;94.83;101050.09;5083793;28;20274;-67
2023/10/08 11:36:13;;;;;;;6.97;4.72;;;;;;;23.42;91.57;101039.59;5093438;28;20190;-65
2023/10/08 11:38:42;;;;;;;11.17;5.93;;;;;;;23.60;89.51;101043.13;5079656;28;20777;-65
2023/10/08 11:41:20;;;;;;;15.98;5.22;;;;;;;23.67;89.63;101035.50;5082054;28;20232;-65
2023/10/08 11:44:05;;;;;;;8.35;4.85;;;;;;;23.96;89.58;101037.13;5079227;28;20206;-66
2023/10/08 11:46:40;;;;;;;6.57;4.57;;;;;;;24.01;88.60;101037.50;5076703;28;20526;-65
2023/10/08 11:49:05;;;;;;;7.68;4.97;;;;;;;23.60;87.69;101022.09;5093151;28;20194;-65
2023/10/08 11:51:34;;;;;;;11.80;5.35;;;;;;;23.60;91.47;101024.72;5072515;28;20228;-66
2023/10/08 11:54:05;;;;;;;11.70;4.55;;;;;;;23.58;89.00;101026.69;5085048;28;20657;-66
2023/10/08 11:56:33;;;;;;;9.50;5.00;;;;;;;23.80;88.61;101024.63;5090084;28;20788;-65
2023/10/08 11:59:00;;;;;;;11.93;5.43;;;;;;;23.68;87.54;101019.59;5065656;28;20167;-65
2023/10/08 12:01:26;;;;;;;8.23;5.03;;;;;;;23.15;92.22;101018.41;5065326;28;20255;-66
2023/10/08 12:03:52;;;;;;;11.00;5.27;;;;;;;23.14;93.11;101016.75;5092455;28;20243;-65
2023/10/08 12:06:18;;;;;;;9.65;5.47;;;;;;;23.34;93.46;101019.34;5076658;28;20215;-65
2023/10/08 12:08:47;;;;;;;13.00;4.53;;;;;;;23.02;91.12;101016.13;5092383;28;20299;-64
2023/10/08 12:11:13;;;;;;;10.88;4.88;;;;;;;22.99;93.73;101008.53;5063498;28;20301;-65
2023/10/08 12:13:44;;;;;;;11.20;5.05;;;;;;;22.98;94.23;101009.47;5093222;28;20189;-65
2023/10/08 12:16:14;;;;;;;8.05;4.43;;;;;;;22.72;98.46;101004.88;5092371;28;20207;-65
2023/10/08 12:18:39;;;;;;;7.43;4.75;;;;;;;22.67;98.83;100998.41;5092256;28;20259;-65